sensor_id;sensor_type;location;lat;lon;timestamp;temperature;humidity
64634;DHT22;51043;52.406;9.690;2022-09-09T00:04:13;12.70;99.90
64634;DHT22;51043;52.406;9.690;2022-09-09T00:09:19;12.70;99.90
64634;DHT22;51043;52.406;9.690;2022-09-09T00:12:34;12.60;99.90
64634;DHT22;51043;52.406;9.690;2022-09-09T00:15:11;12.60;99.90
64634;DHT22;51043;52.406;9.690;2022-09-09T00:17:52;12.70;99.90
64634;DHT22;51043;52.406;9.690;2022-09-09T00:20:36;12.70;99.90
64634;DHT22;51043;52.406;9.690;2022-09-09T00:23:17;12.70;99.90
64634;DHT22;51043;52.406;9.690;2022-09-09T00:28:29;12.60;99.90
64634;DHT22;51043;52.406;9.690;2022-09-09T00:31:13;12.70;99.90
64634;DHT22;51043;52.406;9.690;2022-09-09T00:33:40;12.60;99.90
64634;DHT22;51043;52.406;9.690;2022-09-09T00:36:15;12.60;99.90
64634;DHT22;51043;52.406;9.690;2022-09-09T00:39:03;12.60;99.90
64634;DHT22;51043;52.406;9.690;2022-09-09T00:44:31;12.50;99.90
64634;DHT22;51043;52.406;9.690;2022-09-09T00:47:26;12.60;99.90
64634;DHT22;51043;52.406;9.690;2022-09-09T00:53:27;12.50;99.90
64634;DHT22;51043;52.406;9.690;2022-09-09T00:56:14;12.50;99.90
64634;DHT22;51043;52.406;9.690;2022-09-09T00:59:00;12.50;99.90
64634;DHT22;51043;52.406;9.690;2022-09-09T01:01:31;12.40;99.90
64634;DHT22;51043;52.406;9.690;2022-09-09T01:03:58;12.40;99.90
64634;DHT22;51043;52.406;9.690;2022-09-09T01:06:36;12.40;99.90
64634;DHT22;51043;52.406;9.690;2022-09-09T01:16:48;12.20;99.90
64634;DHT22;51043;52.406;9.690;2022-09-09T01:28:22;12.20;99.90
64634;DHT22;51043;52.406;9.690;2022-09-09T01:30:56;12.30;99.90
64634;DHT22;51043;52.406;9.690;2022-09-09T01:33:25;12.50;99.90
64634;DHT22;51043;52.406;9.690;2022-09-09T01:36:10;12.40;99.90
64634;DHT22;51043;52.406;9.690;2022-09-09T01:38:46;12.50;99.90
64634;DHT22;51043;52.406;9.690;2022-09-09T01:41:14;12.50;99.90
64634;DHT22;51043;52.406;9.690;2022-09-09T01:43:47;12.50;99.90
64634;DHT22;51043;52.406;9.690;2022-09-09T01:46:15;12.40;99.90
64634;DHT22;51043;52.406;9.690;2022-09-09T01:48:43;12.50;99.90
64634;DHT22;51043;52.406;9.690;2022-09-09T01:51:13;12.50;99.90
64634;DHT22;51043;52.406;9.690;2022-09-09T01:53:41;12.60;99.90
64634;DHT22;51043;52.406;9.690;2022-09-09T02:03:59;12.80;99.90
64634;DHT22;51043;52.406;9.690;2022-09-09T02:06:38;12.80;99.90
64634;DHT22;51043;52.406;9.690;2022-09-09T02:09:19;12.80;99.90
64634;DHT22;51043;52.406;9.690;2022-09-09T02:11:49;12.90;99.90
64634;DHT22;51043;52.406;9.690;2022-09-09T02:14:38;12.90;99.90
64634;DHT22;51043;52.406;9.690;2022-09-09T02:17:10;13.00;99.90
64634;DHT22;51043;52.406;9.690;2022-09-09T02:20:10;13.00;99.90
64634;DHT22;51043;52.406;9.690;2022-09-09T02:22:44;13.00;99.90
64634;DHT22;51043;52.406;9.690;2022-09-09T02:25:17;13.10;99.90
64634;DHT22;51043;52.406;9.690;2022-09-09T02:27:46;13.00;99.90
64634;DHT22;51043;52.406;9.690;2022-09-09T02:30:15;13.10;99.90
64634;DHT22;51043;52.406;9.690;2022-09-09T02:32:50;13.10;99.90
64634;DHT22;51043;52.406;9.690;2022-09-09T02:35:23;13.10;99.90
64634;DHT22;51043;52.406;9.690;2022-09-09T02:37:53;13.10;99.90
64634;DHT22;51043;52.406;9.690;2022-09-09T02:40:22;13.10;99.90
64634;DHT22;51043;52.406;9.690;2022-09-09T02:42:57;13.20;99.90
64634;DHT22;51043;52.406;9.690;2022-09-09T02:45:31;13.20;99.90
64634;DHT22;51043;52.406;9.690;2022-09-09T02:53:28;13.20;99.90
64634;DHT22;51043;52.406;9.690;2022-09-09T02:56:05;13.30;99.90
64634;DHT22;51043;52.406;9.690;2022-09-09T02:58:36;13.30;99.90
64634;DHT22;51043;52.406;9.690;2022-09-09T03:01:05;13.20;99.90
64634;DHT22;51043;52.406;9.690;2022-09-09T03:03:33;13.20;99.90
64634;DHT22;51043;52.406;9.690;2022-09-09T03:06:04;13.20;99.90
64634;DHT22;51043;52.406;9.690;2022-09-09T03:08:32;13.30;99.90
64634;DHT22;51043;52.406;9.690;2022-09-09T03:11:00;13.20;99.90
64634;DHT22;51043;52.406;9.690;2022-09-09T03:13:32;13.30;99.90
64634;DHT22;51043;52.406;9.690;2022-09-09T03:16:00;13.30;99.90
64634;DHT22;51043;52.406;9.690;2022-09-09T03:18:30;13.30;99.90
64634;DHT22;51043;52.406;9.690;2022-09-09T03:20:57;13.30;99.90
64634;DHT22;51043;52.406;9.690;2022-09-09T03:23:26;13.30;99.90
64634;DHT22;51043;52.406;9.690;2022-09-09T03:25:53;13.30;99.90
64634;DHT22;51043;52.406;9.690;2022-09-09T03:28:30;13.30;99.90
64634;DHT22;51043;52.406;9.690;2022-09-09T03:31:03;13.30;99.90
64634;DHT22;51043;52.406;9.690;2022-09-09T03:33:35;13.40;99.90
64634;DHT22;51043;52.406;9.690;2022-09-09T03:36:05;13.40;99.90
64634;DHT22;51043;52.406;9.690;2022-09-09T03:38:32;13.40;99.90
64634;DHT22;51043;52.406;9.690;2022-09-09T03:40:59;13.40;99.90
64634;DHT22;51043;52.406;9.690;2022-09-09T03:43:29;13.40;99.90
64634;DHT22;51043;52.406;9.690;2022-09-09T03:45:57;13.40;99.90
64634;DHT22;51043;52.406;9.690;2022-09-09T03:48:25;13.40;99.90
64634;DHT22;51043;52.406;9.690;2022-09-09T03:50:55;13.40;99.90
64634;DHT22;51043;52.406;9.690;2022-09-09T03:53:28;13.40;99.90
64634;DHT22;51043;52.406;9.690;2022-09-09T03:55:57;13.50;99.90
64634;DHT22;51043;52.406;9.690;2022-09-09T03:58:28;13.60;99.90
64634;DHT22;51043;52.406;9.690;2022-09-09T04:01:04;13.50;99.90
64634;DHT22;51043;52.406;9.690;2022-09-09T04:03:32;13.60;99.90
64634;DHT22;51043;52.406;9.690;2022-09-09T04:06:00;13.60;99.90
64634;DHT22;51043;52.406;9.690;2022-09-09T04:08:30;13.60;99.90
64634;DHT22;51043;52.406;9.690;2022-09-09T04:11:00;13.50;99.90
64634;DHT22;51043;52.406;9.690;2022-09-09T04:13:34;13.60;99.90
64634;DHT22;51043;52.406;9.690;2022-09-09T04:16:02;13.60;99.90
64634;DHT22;51043;52.406;9.690;2022-09-09T04:18:31;13.60;99.90
64634;DHT22;51043;52.406;9.690;2022-09-09T04:20:59;13.60;99.90
64634;DHT22;51043;52.406;9.690;2022-09-09T04:23:28;13.60;99.90
64634;DHT22;51043;52.406;9.690;2022-09-09T04:26:01;13.70;99.90
64634;DHT22;51043;52.406;9.690;2022-09-09T04:28:32;13.70;99.90
64634;DHT22;51043;52.406;9.690;2022-09-09T04:31:29;13.70;99.90
64634;DHT22;51043;52.406;9.690;2022-09-09T04:33:56;13.70;99.90
64634;DHT22;51043;52.406;9.690;2022-09-09T04:36:24;13.70;99.90
64634;DHT22;51043;52.406;9.690;2022-09-09T04:38:55;13.70;99.90
64634;DHT22;51043;52.406;9.690;2022-09-09T04:41:22;13.80;99.90
64634;DHT22;51043;52.406;9.690;2022-09-09T04:43:52;13.80;99.90
64634;DHT22;51043;52.406;9.690;2022-09-09T04:46:21;13.80;99.90
64634;DHT22;51043;52.406;9.690;2022-09-09T04:48:50;13.80;99.90
64634;DHT22;51043;52.406;9.690;2022-09-09T04:51:17;13.80;99.90
64634;DHT22;51043;52.406;9.690;2022-09-09T04:53:46;13.90;99.90
64634;DHT22;51043;52.406;9.690;2022-09-09T04:56:17;13.90;99.90
64634;DHT22;51043;52.406;9.690;2022-09-09T04:58:56;13.90;99.90
64634;DHT22;51043;52.406;9.690;2022-09-09T05:01:31;13.90;99.90
64634;DHT22;51043;52.406;9.690;2022-09-09T05:04:02;13.90;99.90
64634;DHT22;51043;52.406;9.690;2022-09-09T05:06:31;13.90;99.90
64634;DHT22;51043;52.406;9.690;2022-09-09T05:08:59;13.90;99.90
64634;DHT22;51043;52.406;9.690;2022-09-09T05:11:30;13.90;99.90
64634;DHT22;51043;52.406;9.690;2022-09-09T05:14:07;13.90;99.90
64634;DHT22;51043;52.406;9.690;2022-09-09T05:16:34;13.90;99.90
64634;DHT22;51043;52.406;9.690;2022-09-09T05:19:01;13.90;99.90
64634;DHT22;51043;52.406;9.690;2022-09-09T05:21:40;14.00;99.90
64634;DHT22;51043;52.406;9.690;2022-09-09T05:24:08;14.00;99.90
64634;DHT22;51043;52.406;9.690;2022-09-09T05:26:35;14.00;99.90
64634;DHT22;51043;52.406;9.690;2022-09-09T05:29:02;14.00;99.90
64634;DHT22;51043;52.406;9.690;2022-09-09T05:31:30;14.10;99.90
64634;DHT22;51043;52.406;9.690;2022-09-09T05:34:00;14.10;99.90
64634;DHT22;51043;52.406;9.690;2022-09-09T05:36:27;14.20;99.90
64634;DHT22;51043;52.406;9.690;2022-09-09T05:38:56;14.20;99.90
64634;DHT22;51043;52.406;9.690;2022-09-09T05:41:25;14.20;99.90
64634;DHT22;51043;52.406;9.690;2022-09-09T05:43:54;14.20;99.90
64634;DHT22;51043;52.406;9.690;2022-09-09T05:46:23;14.30;99.90
64634;DHT22;51043;52.406;9.690;2022-09-09T05:48:53;14.30;99.90
64634;DHT22;51043;52.406;9.690;2022-09-09T05:51:28;14.30;99.90
64634;DHT22;51043;52.406;9.690;2022-09-09T05:54:00;14.30;99.90
64634;DHT22;51043;52.406;9.690;2022-09-09T05:56:32;14.40;99.90
64634;DHT22;51043;52.406;9.690;2022-09-09T05:58:59;14.50;99.90
64634;DHT22;51043;52.406;9.690;2022-09-09T06:01:32;14.60;99.90
64634;DHT22;51043;52.406;9.690;2022-09-09T06:04:01;14.60;99.90
64634;DHT22;51043;52.406;9.690;2022-09-09T06:06:34;14.60;99.90
64634;DHT22;51043;52.406;9.690;2022-09-09T06:09:07;14.60;99.90
64634;DHT22;51043;52.406;9.690;2022-09-09T06:11:38;14.60;99.90
64634;DHT22;51043;52.406;9.690;2022-09-09T06:14:07;14.50;99.90
64634;DHT22;51043;52.406;9.690;2022-09-09T06:16:34;14.70;99.90
64634;DHT22;51043;52.406;9.690;2022-09-09T06:19:12;14.50;99.90
64634;DHT22;51043;52.406;9.690;2022-09-09T06:21:40;14.50;99.90
64634;DHT22;51043;52.406;9.690;2022-09-09T06:24:08;14.50;99.90
64634;DHT22;51043;52.406;9.690;2022-09-09T06:26:37;14.70;99.90
64634;DHT22;51043;52.406;9.690;2022-09-09T06:29:10;14.80;99.90
64634;DHT22;51043;52.406;9.690;2022-09-09T06:31:37;14.90;99.90
64634;DHT22;51043;52.406;9.690;2022-09-09T06:34:13;14.90;99.90
64634;DHT22;51043;52.406;9.690;2022-09-09T06:36:45;15.00;99.90
64634;DHT22;51043;52.406;9.690;2022-09-09T06:39:12;15.10;99.90
64634;DHT22;51043;52.406;9.690;2022-09-09T06:41:41;15.00;99.90
64634;DHT22;51043;52.406;9.690;2022-09-09T06:44:24;15.20;99.90
64634;DHT22;51043;52.406;9.690;2022-09-09T06:46:56;15.20;99.90
64634;DHT22;51043;52.406;9.690;2022-09-09T06:49:23;15.30;99.90
64634;DHT22;51043;52.406;9.690;2022-09-09T06:51:50;15.30;99.90
64634;DHT22;51043;52.406;9.690;2022-09-09T06:54:19;15.50;99.90
64634;DHT22;51043;52.406;9.690;2022-09-09T06:56:47;15.70;99.90
64634;DHT22;51043;52.406;9.690;2022-09-09T06:59:21;15.90;99.90
64634;DHT22;51043;52.406;9.690;2022-09-09T07:01:48;16.00;99.90
64634;DHT22;51043;52.406;9.690;2022-09-09T07:04:18;16.10;99.90
64634;DHT22;51043;52.406;9.690;2022-09-09T07:06:46;16.40;99.90
64634;DHT22;51043;52.406;9.690;2022-09-09T07:09:20;16.50;99.90
64634;DHT22;51043;52.406;9.690;2022-09-09T07:11:50;16.60;99.90
64634;DHT22;51043;52.406;9.690;2022-09-09T07:14:21;16.60;99.90
64634;DHT22;51043;52.406;9.690;2022-09-09T07:16:54;16.70;99.90
64634;DHT22;51043;52.406;9.690;2022-09-09T07:19:24;17.40;99.90
64634;DHT22;51043;52.406;9.690;2022-09-09T07:21:52;18.50;99.90
64634;DHT22;51043;52.406;9.690;2022-09-09T07:24:22;19.60;99.90
64634;DHT22;51043;52.406;9.690;2022-09-09T07:26:49;20.70;99.90
64634;DHT22;51043;52.406;9.690;2022-09-09T07:29:15;21.60;99.90
64634;DHT22;51043;52.406;9.690;2022-09-09T07:31:45;22.60;99.90
64634;DHT22;51043;52.406;9.690;2022-09-09T07:34:17;23.30;99.90
64634;DHT22;51043;52.406;9.690;2022-09-09T07:36:43;24.10;99.90
64634;DHT22;51043;52.406;9.690;2022-09-09T07:39:13;24.80;99.90
64634;DHT22;51043;52.406;9.690;2022-09-09T07:41:47;25.30;99.90
64634;DHT22;51043;52.406;9.690;2022-09-09T07:44:19;25.90;99.90
64634;DHT22;51043;52.406;9.690;2022-09-09T07:46:51;26.50;99.90
64634;DHT22;51043;52.406;9.690;2022-09-09T07:49:22;26.80;99.90
64634;DHT22;51043;52.406;9.690;2022-09-09T07:51:53;27.40;99.90
64634;DHT22;51043;52.406;9.690;2022-09-09T07:54:20;27.80;99.90
64634;DHT22;51043;52.406;9.690;2022-09-09T07:56:51;27.90;99.90
64634;DHT22;51043;52.406;9.690;2022-09-09T07:59:21;28.20;99.90
64634;DHT22;51043;52.406;9.690;2022-09-09T08:01:52;28.30;99.90
64634;DHT22;51043;52.406;9.690;2022-09-09T08:04:26;28.60;99.90
64634;DHT22;51043;52.406;9.690;2022-09-09T08:06:59;28.40;98.30
64634;DHT22;51043;52.406;9.690;2022-09-09T08:09:30;28.40;99.90
64634;DHT22;51043;52.406;9.690;2022-09-09T08:12:11;28.70;99.90
64634;DHT22;51043;52.406;9.690;2022-09-09T08:14:39;29.00;98.90
64634;DHT22;51043;52.406;9.690;2022-09-09T08:17:07;29.40;96.70
64634;DHT22;51043;52.406;9.690;2022-09-09T08:19:34;29.90;93.00
64634;DHT22;51043;52.406;9.690;2022-09-09T08:22:07;29.90;92.00
64634;DHT22;51043;52.406;9.690;2022-09-09T08:24:37;29.50;93.20
64634;DHT22;51043;52.406;9.690;2022-09-09T08:27:07;29.70;95.20
64634;DHT22;51043;52.406;9.690;2022-09-09T08:29:37;30.30;89.10
64634;DHT22;51043;52.406;9.690;2022-09-09T08:32:04;29.60;88.20
64634;DHT22;51043;52.406;9.690;2022-09-09T08:34:32;28.40;91.30
64634;DHT22;51043;52.406;9.690;2022-09-09T08:37:08;26.80;93.00
64634;DHT22;51043;52.406;9.690;2022-09-09T08:39:44;25.40;96.40
64634;DHT22;51043;52.406;9.690;2022-09-09T08:52:19;22.00;99.90
64634;DHT22;51043;52.406;9.690;2022-09-09T08:54:50;21.80;99.90
64634;DHT22;51043;52.406;9.690;2022-09-09T08:57:25;21.60;99.90
64634;DHT22;51043;52.406;9.690;2022-09-09T08:59:55;21.60;99.90
64634;DHT22;51043;52.406;9.690;2022-09-09T09:02:50;21.90;99.90
64634;DHT22;51043;52.406;9.690;2022-09-09T09:05:37;22.40;99.90
64634;DHT22;51043;52.406;9.690;2022-09-09T09:10:53;23.00;99.90
64634;DHT22;51043;52.406;9.690;2022-09-09T09:16:19;23.10;99.90
64634;DHT22;51043;52.406;9.690;2022-09-09T09:18:49;22.60;99.90
64634;DHT22;51043;52.406;9.690;2022-09-09T09:21:59;22.30;99.90
64634;DHT22;51043;52.406;9.690;2022-09-09T09:30:02;21.60;99.90
64634;DHT22;51043;52.406;9.690;2022-09-09T09:32:59;21.40;99.90
64634;DHT22;51043;52.406;9.690;2022-09-09T09:35:27;21.50;99.90
64634;DHT22;51043;52.406;9.690;2022-09-09T09:37:55;21.50;99.90
64634;DHT22;51043;52.406;9.690;2022-09-09T09:40:50;21.60;99.90
64634;DHT22;51043;52.406;9.690;2022-09-09T09:43:22;21.80;99.90
64634;DHT22;51043;52.406;9.690;2022-09-09T09:45:51;22.40;99.90
64634;DHT22;51043;52.406;9.690;2022-09-09T09:48:27;23.40;99.90
64634;DHT22;51043;52.406;9.690;2022-09-09T09:51:08;24.40;99.90
64634;DHT22;51043;52.406;9.690;2022-09-09T09:53:38;24.70;99.90
64634;DHT22;51043;52.406;9.690;2022-09-09T09:56:10;24.50;99.90
64634;DHT22;51043;52.406;9.690;2022-09-09T10:01:24;24.20;99.90
64634;DHT22;51043;52.406;9.690;2022-09-09T10:04:02;24.20;99.90
64634;DHT22;51043;52.406;9.690;2022-09-09T10:09:01;25.20;99.90
64634;DHT22;51043;52.406;9.690;2022-09-09T10:22:32;29.60;94.30
64634;DHT22;51043;52.406;9.690;2022-09-09T10:25:24;30.00;89.70
64634;DHT22;51043;52.406;9.690;2022-09-09T10:28:16;30.30;84.20
64634;DHT22;51043;52.406;9.690;2022-09-09T10:33:48;28.70;85.10
64634;DHT22;51043;52.406;9.690;2022-09-09T10:36:28;28.60;87.10
64634;DHT22;51043;52.406;9.690;2022-09-09T10:39:03;28.60;84.60
64634;DHT22;51043;52.406;9.690;2022-09-09T10:42:12;28.20;82.10
64634;DHT22;51043;52.406;9.690;2022-09-09T10:45:02;27.20;86.30
64634;DHT22;51043;52.406;9.690;2022-09-09T10:48:09;26.00;89.80
64634;DHT22;51043;52.406;9.690;2022-09-09T10:50:53;25.10;91.50
64634;DHT22;51043;52.406;9.690;2022-09-09T10:53:36;24.10;94.20
64634;DHT22;51043;52.406;9.690;2022-09-09T10:56:09;23.40;96.20
64634;DHT22;51043;52.406;9.690;2022-09-09T10:59:00;22.80;98.40
64634;DHT22;51043;52.406;9.690;2022-09-09T11:01:43;22.30;99.90
64634;DHT22;51043;52.406;9.690;2022-09-09T11:06:51;21.40;99.90
64634;DHT22;51043;52.406;9.690;2022-09-09T11:09:23;21.20;99.90
64634;DHT22;51043;52.406;9.690;2022-09-09T11:11:56;21.10;99.90
64634;DHT22;51043;52.406;9.690;2022-09-09T11:14:36;20.90;99.90
64634;DHT22;51043;52.406;9.690;2022-09-09T11:20:11;20.60;99.90
64634;DHT22;51043;52.406;9.690;2022-09-09T11:23:05;20.00;99.90
64634;DHT22;51043;52.406;9.690;2022-09-09T11:25:40;19.40;99.90
64634;DHT22;51043;52.406;9.690;2022-09-09T11:29:12;19.00;99.90
64634;DHT22;51043;52.406;9.690;2022-09-09T11:31:43;18.60;99.90
64634;DHT22;51043;52.406;9.690;2022-09-09T11:37:22;18.20;99.90
64634;DHT22;51043;52.406;9.690;2022-09-09T11:39:58;18.10;99.90
64634;DHT22;51043;52.406;9.690;2022-09-09T11:42:28;18.00;99.90
64634;DHT22;51043;52.406;9.690;2022-09-09T11:44:55;17.90;99.90
64634;DHT22;51043;52.406;9.690;2022-09-09T11:47:28;17.90;99.90
64634;DHT22;51043;52.406;9.690;2022-09-09T11:52:44;17.80;99.90
64634;DHT22;51043;52.406;9.690;2022-09-09T11:55:25;17.60;99.90
64634;DHT22;51043;52.406;9.690;2022-09-09T12:00:46;17.50;99.90
64634;DHT22;51043;52.406;9.690;2022-09-09T12:06:31;17.20;99.90
64634;DHT22;51043;52.406;9.690;2022-09-09T12:09:19;17.00;99.90
64634;DHT22;51043;52.406;9.690;2022-09-09T12:11:48;16.90;99.90
64634;DHT22;51043;52.406;9.690;2022-09-09T12:14:54;16.70;99.90
64634;DHT22;51043;52.406;9.690;2022-09-09T12:17:22;16.60;99.90
64634;DHT22;51043;52.406;9.690;2022-09-09T12:20:19;16.50;99.90
64634;DHT22;51043;52.406;9.690;2022-09-09T12:31:39;18.60;99.90
64634;DHT22;51043;52.406;9.690;2022-09-09T12:36:47;20.10;99.90
64634;DHT22;51043;52.406;9.690;2022-09-09T12:39:32;20.50;99.90
64634;DHT22;51043;52.406;9.690;2022-09-09T12:41:59;21.20;99.90
64634;DHT22;51043;52.406;9.690;2022-09-09T12:44:27;21.60;99.90
64634;DHT22;51043;52.406;9.690;2022-09-09T12:47:02;22.40;99.90
64634;DHT22;51043;52.406;9.690;2022-09-09T12:49:38;23.10;99.90
64634;DHT22;51043;52.406;9.690;2022-09-09T12:52:34;23.40;99.90
64634;DHT22;51043;52.406;9.690;2022-09-09T12:55:05;23.50;99.90
64634;DHT22;51043;52.406;9.690;2022-09-09T12:57:37;23.20;99.90
64634;DHT22;51043;52.406;9.690;2022-09-09T13:00:17;23.10;99.90
64634;DHT22;51043;52.406;9.690;2022-09-09T13:03:17;22.80;99.90
64634;DHT22;51043;52.406;9.690;2022-09-09T13:05:44;22.60;99.90
64634;DHT22;51043;52.406;9.690;2022-09-09T13:08:14;22.50;99.90
64634;DHT22;51043;52.406;9.690;2022-09-09T13:10:54;22.40;99.90
64634;DHT22;51043;52.406;9.690;2022-09-09T13:13:28;22.50;99.90
64634;DHT22;51043;52.406;9.690;2022-09-09T13:15:59;22.60;99.90
64634;DHT22;51043;52.406;9.690;2022-09-09T13:18:34;22.30;99.90
64634;DHT22;51043;52.406;9.690;2022-09-09T13:21:02;21.90;99.90
64634;DHT22;51043;52.406;9.690;2022-09-09T13:23:31;21.60;99.90
64634;DHT22;51043;52.406;9.690;2022-09-09T13:26:01;21.20;99.90
64634;DHT22;51043;52.406;9.690;2022-09-09T13:28:29;21.00;99.90
64634;DHT22;51043;52.406;9.690;2022-09-09T13:31:02;20.70;99.90
64634;DHT22;51043;52.406;9.690;2022-09-09T13:36:05;20.30;99.90
64634;DHT22;51043;52.406;9.690;2022-09-09T13:38:36;20.00;99.90
64634;DHT22;51043;52.406;9.690;2022-09-09T13:41:07;20.00;99.90
64634;DHT22;51043;52.406;9.690;2022-09-09T13:43:43;19.90;99.90
64634;DHT22;51043;52.406;9.690;2022-09-09T13:46:35;19.80;99.90
64634;DHT22;51043;52.406;9.690;2022-09-09T13:49:22;19.80;99.90
64634;DHT22;51043;52.406;9.690;2022-09-09T13:51:50;19.70;99.90
64634;DHT22;51043;52.406;9.690;2022-09-09T13:54:20;19.80;99.90
64634;DHT22;51043;52.406;9.690;2022-09-09T13:56:47;19.80;99.90
64634;DHT22;51043;52.406;9.690;2022-09-09T13:59:19;19.80;99.90
64634;DHT22;51043;52.406;9.690;2022-09-09T14:01:51;19.90;99.90
64634;DHT22;51043;52.406;9.690;2022-09-09T14:04:19;20.00;99.90
64634;DHT22;51043;52.406;9.690;2022-09-09T14:06:50;20.20;99.90
64634;DHT22;51043;52.406;9.690;2022-09-09T14:09:17;20.30;99.90
64634;DHT22;51043;52.406;9.690;2022-09-09T14:11:45;20.30;99.90
64634;DHT22;51043;52.406;9.690;2022-09-09T14:14:12;20.20;99.90
64634;DHT22;51043;52.406;9.690;2022-09-09T14:16:39;20.30;99.90
64634;DHT22;51043;52.406;9.690;2022-09-09T14:19:08;20.50;99.90
64634;DHT22;51043;52.406;9.690;2022-09-09T14:21:36;20.60;99.90
64634;DHT22;51043;52.406;9.690;2022-09-09T14:24:03;20.70;99.90
64634;DHT22;51043;52.406;9.690;2022-09-09T14:26:30;20.70;99.90
64634;DHT22;51043;52.406;9.690;2022-09-09T14:28:57;20.70;99.90
64634;DHT22;51043;52.406;9.690;2022-09-09T14:31:24;20.70;99.90
64634;DHT22;51043;52.406;9.690;2022-09-09T14:33:51;20.80;99.90
64634;DHT22;51043;52.406;9.690;2022-09-09T14:36:19;20.90;99.90
64634;DHT22;51043;52.406;9.690;2022-09-09T14:38:46;21.10;99.90
64634;DHT22;51043;52.406;9.690;2022-09-09T14:41:15;21.20;99.90
64634;DHT22;51043;52.406;9.690;2022-09-09T14:43:46;21.50;99.90
64634;DHT22;51043;52.406;9.690;2022-09-09T14:46:15;21.70;99.90
64634;DHT22;51043;52.406;9.690;2022-09-09T14:48:43;22.00;99.90
64634;DHT22;51043;52.406;9.690;2022-09-09T14:51:18;22.40;99.90
64634;DHT22;51043;52.406;9.690;2022-09-09T14:53:46;22.60;99.90
64634;DHT22;51043;52.406;9.690;2022-09-09T14:56:21;22.60;99.90
64634;DHT22;51043;52.406;9.690;2022-09-09T14:58:50;22.50;99.90
64634;DHT22;51043;52.406;9.690;2022-09-09T15:01:19;22.30;99.90
64634;DHT22;51043;52.406;9.690;2022-09-09T15:03:54;22.20;99.90
64634;DHT22;51043;52.406;9.690;2022-09-09T15:06:22;21.90;99.90
64634;DHT22;51043;52.406;9.690;2022-09-09T15:08:52;21.60;99.90
64634;DHT22;51043;52.406;9.690;2022-09-09T15:11:20;21.20;99.90
64634;DHT22;51043;52.406;9.690;2022-09-09T15:13:46;21.20;99.90
64634;DHT22;51043;52.406;9.690;2022-09-09T15:16:16;21.10;99.90
64634;DHT22;51043;52.406;9.690;2022-09-09T15:18:46;21.10;99.90
64634;DHT22;51043;52.406;9.690;2022-09-09T15:21:15;21.10;99.90
64634;DHT22;51043;52.406;9.690;2022-09-09T15:23:43;21.00;99.90
64634;DHT22;51043;52.406;9.690;2022-09-09T15:26:10;20.80;99.90
64634;DHT22;51043;52.406;9.690;2022-09-09T15:28:38;20.80;99.90
64634;DHT22;51043;52.406;9.690;2022-09-09T15:31:19;20.70;99.90
64634;DHT22;51043;52.406;9.690;2022-09-09T15:34:06;20.60;99.90
64634;DHT22;51043;52.406;9.690;2022-09-09T15:36:38;20.60;99.90
64634;DHT22;51043;52.406;9.690;2022-09-09T15:39:07;20.60;99.90
64634;DHT22;51043;52.406;9.690;2022-09-09T15:41:34;20.50;99.90
64634;DHT22;51043;52.406;9.690;2022-09-09T15:44:01;20.60;99.90
64634;DHT22;51043;52.406;9.690;2022-09-09T15:46:33;20.60;99.90
64634;DHT22;51043;52.406;9.690;2022-09-09T15:49:11;20.60;99.90
64634;DHT22;51043;52.406;9.690;2022-09-09T15:51:41;20.60;99.90
64634;DHT22;51043;52.406;9.690;2022-09-09T15:54:11;20.40;99.90
64634;DHT22;51043;52.406;9.690;2022-09-09T15:56:39;20.50;99.90
64634;DHT22;51043;52.406;9.690;2022-09-09T15:59:07;20.40;99.90
64634;DHT22;51043;52.406;9.690;2022-09-09T16:01:35;20.30;99.90
64634;DHT22;51043;52.406;9.690;2022-09-09T16:04:02;20.30;99.90
64634;DHT22;51043;52.406;9.690;2022-09-09T16:06:30;20.20;99.90
64634;DHT22;51043;52.406;9.690;2022-09-09T16:08:59;20.20;99.90
64634;DHT22;51043;52.406;9.690;2022-09-09T16:11:31;20.20;99.90
64634;DHT22;51043;52.406;9.690;2022-09-09T16:13:59;20.40;99.90
64634;DHT22;51043;52.406;9.690;2022-09-09T16:16:28;20.50;99.90
64634;DHT22;51043;52.406;9.690;2022-09-09T16:18:58;20.70;99.90
64634;DHT22;51043;52.406;9.690;2022-09-09T16:21:27;20.90;99.90
64634;DHT22;51043;52.406;9.690;2022-09-09T16:23:59;21.00;99.90
64634;DHT22;51043;52.406;9.690;2022-09-09T16:26:27;21.10;99.90
64634;DHT22;51043;52.406;9.690;2022-09-09T16:28:55;21.10;99.90
64634;DHT22;51043;52.406;9.690;2022-09-09T16:31:23;21.00;99.90
64634;DHT22;51043;52.406;9.690;2022-09-09T16:33:51;20.90;99.90
64634;DHT22;51043;52.406;9.690;2022-09-09T16:36:20;20.80;99.90
64634;DHT22;51043;52.406;9.690;2022-09-09T16:38:47;20.60;99.90
64634;DHT22;51043;52.406;9.690;2022-09-09T16:41:14;20.50;99.90
64634;DHT22;51043;52.406;9.690;2022-09-09T16:43:42;20.20;99.90
64634;DHT22;51043;52.406;9.690;2022-09-09T16:46:15;20.10;99.90
64634;DHT22;51043;52.406;9.690;2022-09-09T16:48:44;19.90;99.90
64634;DHT22;51043;52.406;9.690;2022-09-09T16:51:17;19.60;99.90
64634;DHT22;51043;52.406;9.690;2022-09-09T16:53:45;19.50;99.90
64634;DHT22;51043;52.406;9.690;2022-09-09T16:56:14;19.30;99.90
64634;DHT22;51043;52.406;9.690;2022-09-09T16:58:42;19.10;99.90
64634;DHT22;51043;52.406;9.690;2022-09-09T17:01:12;19.10;99.90
64634;DHT22;51043;52.406;9.690;2022-09-09T17:03:40;19.00;99.90
64634;DHT22;51043;52.406;9.690;2022-09-09T17:06:12;18.90;99.90
64634;DHT22;51043;52.406;9.690;2022-09-09T17:08:40;18.90;99.90
64634;DHT22;51043;52.406;9.690;2022-09-09T17:11:12;18.80;99.90
64634;DHT22;51043;52.406;9.690;2022-09-09T17:13:42;18.80;99.90
64634;DHT22;51043;52.406;9.690;2022-09-09T17:16:10;18.70;99.90
64634;DHT22;51043;52.406;9.690;2022-09-09T17:18:37;18.60;99.90
64634;DHT22;51043;52.406;9.690;2022-09-09T17:21:06;18.60;99.90
64634;DHT22;51043;52.406;9.690;2022-09-09T17:23:34;18.50;99.90
64634;DHT22;51043;52.406;9.690;2022-09-09T17:26:11;18.50;99.90
64634;DHT22;51043;52.406;9.690;2022-09-09T17:28:40;18.50;99.90
64634;DHT22;51043;52.406;9.690;2022-09-09T17:31:08;18.60;99.90
64634;DHT22;51043;52.406;9.690;2022-09-09T17:33:37;18.70;99.90
64634;DHT22;51043;52.406;9.690;2022-09-09T17:38:38;18.60;99.90
64634;DHT22;51043;52.406;9.690;2022-09-09T17:41:17;18.60;99.90
64634;DHT22;51043;52.406;9.690;2022-09-09T17:43:44;18.50;99.90
64634;DHT22;51043;52.406;9.690;2022-09-09T17:46:17;18.20;99.90
64634;DHT22;51043;52.406;9.690;2022-09-09T17:48:45;17.90;99.90
64634;DHT22;51043;52.406;9.690;2022-09-09T17:51:20;17.60;99.90
64634;DHT22;51043;52.406;9.690;2022-09-09T17:53:52;17.40;99.90
64634;DHT22;51043;52.406;9.690;2022-09-09T17:56:22;17.30;99.90
64634;DHT22;51043;52.406;9.690;2022-09-09T17:58:50;17.10;99.90
64634;DHT22;51043;52.406;9.690;2022-09-09T18:01:24;17.00;99.90
64634;DHT22;51043;52.406;9.690;2022-09-09T18:03:54;16.80;99.90